Dundee, MI

1:00 PM EST on March 01, 2015 (GMT -0500)
Willow Run | Change Station
CLOSE
Current Station
Airport
Location: Ypsilanti,
Elevation: 715 ft
Nearby Weather Stations

Elev 715 ft 42.24 °N, 83.53 °W | Updated 7 minutes ago

Snow
Snow
24 °F
Feels Like 17 °F
N
6
Wind Variable Wind from SW

Today
High -- | Low -- °F
--% Chance of Precip.
Yesterday
High -- | Low -- °F
Precip. -- in
7:10 AM 6:24 PM
Waxing Gibbous, 86% visible
Pressure 30.35 in
Visibility 1.5 miles
Clouds Few 1400 ft
Mostly Cloudy 2400 ft
Overcast 3600 ft
Windchill 17 °F
Dew Point 18 °F
Humidity 77%
Rainfall 0.00 in
Snow Depth Not available.
UV 2 out of 12
Pollen .40 out of 12
Air Quality Not available.
Flu Activity Not available.
METAR KYIP 011753Z 22005KT 1 1/2SM -SN FEW014 BKN024 OVC036 M04/M08 A3032 RMK AO2 SNB13 SLP275 P0000 60000 T10441078 11039 21078 56020

More Conditions Fewer Conditions

Pressure 30.35 in
Visibility 1.5 miles
Clouds Few 1400 ft
Mostly Cloudy 2400 ft
Overcast 3600 ft
Windchill 17 °F
Dew Point 18 °F
Humidity 77%
Rainfall 0.00 in
Snow Depth Not available.
UV 2 out of 12
Pollen .40 out of 12
Air Quality Not available.
Flu Activity Not available.
METAR KYIP 011753Z 22005KT 1 1/2SM -SN FEW014 BKN024 OVC036 M04/M08 A3032 RMK AO2 SNB13 SLP275 P0000 60000 T10441078 11039 21078 56020

More Conditions Fewer Conditions

10-Day Weather Forecast

Almanac

Astronomy

Mar. 01, 2015 Rise Set
Actual Time
Civil Twilight
Nautical Twilight
Astronomical Twilight
Moon
Length of Visible Light
Length of Day
Tomorrow will be .
, % of the Moon is Illuminated

Today's Extremes

State Highs State Lows

Community

WunderPhotos

Upload Photos

1,801,487 photos uploaded!

WunderBlogs® & News

Nearby

Air Quality

  Air Quality AQ Index Pollutant
Not available.

Snow Depth

Station Depth Elevation

Earthquake Activity

City Distance Mag. Time & Date
Minimum magnitude displayed is 2.5.

Coastal Water Temperatures

Place Temperature

Nearby Weather Stations

Special Statement
Statement as of 11:55 AM EST on March 01, 2015

Light snow will persist through at least 4 PM before slowly coming
to an end. Additional snow accumulations between noon and 4 PM
will range from a half inch to an inch. Temperatures will remain
in the low 20s... so untreated roads will be very slippery.
Motorists should remain alert to slick roads and reduced
visibilities in snow.



1155 am EST sun Mar 1 2015

Light snow will persist through at least 4 PM before slowly coming
to an end. Additional snow accumulations between noon and 4 PM
will range from a half inch to an inch. Temperatures will remain
in the low 20s... so untreated roads will be very slippery.
Motorists should remain alert to slick roads and reduced
visibilities in snow.